sensor_id;sensor_type;location;lat;lon;timestamp;P1;durP1;ratioP1;P2;durP2;ratioP2
1949;SDS011;975;48.760;9.152;2023-06-04T00:02:30;8.32;;;3.90;;
1949;SDS011;975;48.760;9.152;2023-06-04T00:05:22;7.43;;;4.30;;
1949;SDS011;975;48.760;9.152;2023-06-04T00:08:18;6.93;;;4.00;;
1949;SDS011;975;48.760;9.152;2023-06-04T00:11:10;6.00;;;3.83;;
1949;SDS011;975;48.760;9.152;2023-06-04T00:13:58;6.13;;;3.33;;
1949;SDS011;975;48.760;9.152;2023-06-04T00:16:49;9.27;;;4.43;;
1949;SDS011;975;48.760;9.152;2023-06-04T00:19:42;6.85;;;4.30;;
1949;SDS011;975;48.760;9.152;2023-06-04T00:22:35;8.13;;;3.85;;
1949;SDS011;975;48.760;9.152;2023-06-04T00:25:25;6.45;;;3.90;;
1949;SDS011;975;48.760;9.152;2023-06-04T00:28:17;7.90;;;3.70;;
1949;SDS011;975;48.760;9.152;2023-06-04T00:31:06;6.20;;;3.67;;
1949;SDS011;975;48.760;9.152;2023-06-04T00:34:00;9.32;;;3.97;;
1949;SDS011;975;48.760;9.152;2023-06-04T00:36:50;6.55;;;3.13;;
1949;SDS011;975;48.760;9.152;2023-06-04T00:42:42;7.25;;;4.07;;
1949;SDS011;975;48.760;9.152;2023-06-04T00:45:33;10.02;;;4.70;;
1949;SDS011;975;48.760;9.152;2023-06-04T00:48:22;7.68;;;3.92;;
1949;SDS011;975;48.760;9.152;2023-06-04T00:51:14;7.00;;;4.05;;
1949;SDS011;975;48.760;9.152;2023-06-04T00:54:02;9.63;;;3.90;;
1949;SDS011;975;48.760;9.152;2023-06-04T00:56:54;10.52;;;3.90;;
1949;SDS011;975;48.760;9.152;2023-06-04T00:59:47;8.45;;;4.15;;
1949;SDS011;975;48.760;9.152;2023-06-04T01:02:37;5.57;;;3.50;;
1949;SDS011;975;48.760;9.152;2023-06-04T01:05:29;7.57;;;3.97;;
1949;SDS011;975;48.760;9.152;2023-06-04T01:08:17;7.38;;;4.53;;
1949;SDS011;975;48.760;9.152;2023-06-04T01:11:09;8.05;;;4.03;;
1949;SDS011;975;48.760;9.152;2023-06-04T01:14:01;7.82;;;4.15;;
1949;SDS011;975;48.760;9.152;2023-06-04T01:16:55;7.15;;;3.92;;
1949;SDS011;975;48.760;9.152;2023-06-04T01:20:04;7.72;;;4.13;;
1949;SDS011;975;48.760;9.152;2023-06-04T01:26:10;7.68;;;4.43;;
1949;SDS011;975;48.760;9.152;2023-06-04T01:29:04;7.85;;;4.22;;
1949;SDS011;975;48.760;9.152;2023-06-04T01:31:53;8.95;;;4.28;;
1949;SDS011;975;48.760;9.152;2023-06-04T01:34:45;9.48;;;4.68;;
1949;SDS011;975;48.760;9.152;2023-06-04T01:37:35;7.00;;;3.88;;
1949;SDS011;975;48.760;9.152;2023-06-04T01:40:28;10.85;;;4.63;;
1949;SDS011;975;48.760;9.152;2023-06-04T01:43:17;7.57;;;4.22;;
1949;SDS011;975;48.760;9.152;2023-06-04T01:46:13;8.75;;;4.10;;
1949;SDS011;975;48.760;9.152;2023-06-04T01:49:02;8.55;;;4.03;;
1949;SDS011;975;48.760;9.152;2023-06-04T01:51:53;7.13;;;4.10;;
1949;SDS011;975;48.760;9.152;2023-06-04T01:54:46;8.23;;;3.50;;
1949;SDS011;975;48.760;9.152;2023-06-04T01:57:41;8.35;;;3.88;;
1949;SDS011;975;48.760;9.152;2023-06-04T02:00:30;8.50;;;4.55;;
1949;SDS011;975;48.760;9.152;2023-06-04T02:03:23;9.55;;;4.40;;
1949;SDS011;975;48.760;9.152;2023-06-04T02:06:13;7.25;;;4.38;;
1949;SDS011;975;48.760;9.152;2023-06-04T02:09:07;7.55;;;3.97;;
1949;SDS011;975;48.760;9.152;2023-06-04T02:12:03;5.95;;;4.32;;
1949;SDS011;975;48.760;9.152;2023-06-04T02:15:01;7.20;;;3.92;;
1949;SDS011;975;48.760;9.152;2023-06-04T02:17:54;8.77;;;3.80;;
1949;SDS011;975;48.760;9.152;2023-06-04T02:20:44;7.72;;;4.00;;
1949;SDS011;975;48.760;9.152;2023-06-04T02:23:43;9.65;;;4.68;;
1949;SDS011;975;48.760;9.152;2023-06-04T02:26:34;7.85;;;3.95;;
1949;SDS011;975;48.760;9.152;2023-06-04T02:29:23;9.00;;;4.65;;
1949;SDS011;975;48.760;9.152;2023-06-04T02:32:16;7.47;;;3.97;;
1949;SDS011;975;48.760;9.152;2023-06-04T02:35:04;8.10;;;3.88;;
1949;SDS011;975;48.760;9.152;2023-06-04T02:37:55;7.32;;;4.13;;
1949;SDS011;975;48.760;9.152;2023-06-04T02:40:43;7.50;;;3.97;;
1949;SDS011;975;48.760;9.152;2023-06-04T02:43:34;9.68;;;4.22;;
1949;SDS011;975;48.760;9.152;2023-06-04T02:46:26;10.20;;;4.53;;
1949;SDS011;975;48.760;9.152;2023-06-04T02:49:14;7.22;;;3.67;;
1949;SDS011;975;48.760;9.152;2023-06-04T02:52:02;7.28;;;4.65;;
1949;SDS011;975;48.760;9.152;2023-06-04T02:54:50;7.40;;;4.00;;
1949;SDS011;975;48.760;9.152;2023-06-04T02:57:39;7.20;;;3.88;;
1949;SDS011;975;48.760;9.152;2023-06-04T03:00:27;8.02;;;4.30;;
1949;SDS011;975;48.760;9.152;2023-06-04T03:03:16;7.70;;;3.88;;
1949;SDS011;975;48.760;9.152;2023-06-04T03:06:07;6.30;;;3.35;;
1949;SDS011;975;48.760;9.152;2023-06-04T03:08:56;8.95;;;4.28;;
1949;SDS011;975;48.760;9.152;2023-06-04T03:11:43;10.38;;;3.65;;
1949;SDS011;975;48.760;9.152;2023-06-04T03:14:31;8.32;;;4.40;;
1949;SDS011;975;48.760;9.152;2023-06-04T03:17:30;7.30;;;3.50;;
1949;SDS011;975;48.760;9.152;2023-06-04T03:20:19;6.72;;;3.78;;
1949;SDS011;975;48.760;9.152;2023-06-04T03:23:09;7.35;;;3.78;;
1949;SDS011;975;48.760;9.152;2023-06-04T03:26:00;8.00;;;3.97;;
1949;SDS011;975;48.760;9.152;2023-06-04T03:28:48;7.78;;;3.90;;
1949;SDS011;975;48.760;9.152;2023-06-04T03:31:36;8.82;;;3.45;;
1949;SDS011;975;48.760;9.152;2023-06-04T03:34:24;7.20;;;3.67;;
1949;SDS011;975;48.760;9.152;2023-06-04T03:37:13;6.28;;;3.90;;
1949;SDS011;975;48.760;9.152;2023-06-04T03:40:00;8.32;;;4.00;;
1949;SDS011;975;48.760;9.152;2023-06-04T03:42:49;7.68;;;3.85;;
1949;SDS011;975;48.760;9.152;2023-06-04T03:45:37;8.52;;;4.43;;
1949;SDS011;975;48.760;9.152;2023-06-04T03:48:25;8.75;;;3.70;;
1949;SDS011;975;48.760;9.152;2023-06-04T03:51:13;6.43;;;3.55;;
1949;SDS011;975;48.760;9.152;2023-06-04T03:54:10;5.80;;;3.05;;
1949;SDS011;975;48.760;9.152;2023-06-04T03:57:02;7.68;;;4.32;;
1949;SDS011;975;48.760;9.152;2023-06-04T03:59:50;8.43;;;4.18;;
1949;SDS011;975;48.760;9.152;2023-06-04T04:02:38;7.38;;;4.00;;
1949;SDS011;975;48.760;9.152;2023-06-04T04:05:25;8.45;;;3.95;;
1949;SDS011;975;48.760;9.152;2023-06-04T04:08:13;6.78;;;3.53;;
1949;SDS011;975;48.760;9.152;2023-06-04T04:11:03;6.20;;;3.20;;
1949;SDS011;975;48.760;9.152;2023-06-04T04:13:54;5.38;;;2.90;;
1949;SDS011;975;48.760;9.152;2023-06-04T04:16:42;6.80;;;3.45;;
1949;SDS011;975;48.760;9.152;2023-06-04T04:19:29;6.32;;;3.72;;
1949;SDS011;975;48.760;9.152;2023-06-04T04:22:17;5.05;;;3.33;;
1949;SDS011;975;48.760;9.152;2023-06-04T04:25:06;6.25;;;3.35;;
1949;SDS011;975;48.760;9.152;2023-06-04T04:27:55;6.18;;;3.42;;
1949;SDS011;975;48.760;9.152;2023-06-04T04:30:46;5.82;;;3.38;;
1949;SDS011;975;48.760;9.152;2023-06-04T04:33:35;9.77;;;3.72;;
1949;SDS011;975;48.760;9.152;2023-06-04T04:36:25;7.55;;;3.30;;
1949;SDS011;975;48.760;9.152;2023-06-04T04:39:15;4.25;;;2.80;;
1949;SDS011;975;48.760;9.152;2023-06-04T04:42:03;5.82;;;2.88;;
1949;SDS011;975;48.760;9.152;2023-06-04T04:44:53;4.65;;;2.88;;
1949;SDS011;975;48.760;9.152;2023-06-04T04:47:41;6.50;;;3.38;;
1949;SDS011;975;48.760;9.152;2023-06-04T04:50:29;5.30;;;3.05;;
1949;SDS011;975;48.760;9.152;2023-06-04T04:53:17;7.53;;;2.95;;
1949;SDS011;975;48.760;9.152;2023-06-04T04:56:05;5.75;;;3.40;;
1949;SDS011;975;48.760;9.152;2023-06-04T04:58:56;6.80;;;3.63;;
1949;SDS011;975;48.760;9.152;2023-06-04T05:01:45;5.38;;;2.90;;
1949;SDS011;975;48.760;9.152;2023-06-04T05:04:33;4.82;;;2.90;;
1949;SDS011;975;48.760;9.152;2023-06-04T05:07:21;7.75;;;3.42;;
1949;SDS011;975;48.760;9.152;2023-06-04T05:10:10;7.53;;;3.08;;
1949;SDS011;975;48.760;9.152;2023-06-04T05:12:58;6.55;;;3.53;;
1949;SDS011;975;48.760;9.152;2023-06-04T05:15:47;8.00;;;3.17;;
1949;SDS011;975;48.760;9.152;2023-06-04T05:18:39;7.57;;;3.17;;
1949;SDS011;975;48.760;9.152;2023-06-04T05:21:30;6.45;;;3.20;;
1949;SDS011;975;48.760;9.152;2023-06-04T05:24:17;4.45;;;3.17;;
1949;SDS011;975;48.760;9.152;2023-06-04T05:27:08;5.05;;;3.08;;
1949;SDS011;975;48.760;9.152;2023-06-04T05:29:56;5.03;;;3.00;;
1949;SDS011;975;48.760;9.152;2023-06-04T05:32:44;5.40;;;2.25;;
1949;SDS011;975;48.760;9.152;2023-06-04T05:35:33;6.82;;;2.50;;
1949;SDS011;975;48.760;9.152;2023-06-04T05:38:21;6.07;;;2.40;;
1949;SDS011;975;48.760;9.152;2023-06-04T05:43:59;4.93;;;2.05;;
1949;SDS011;975;48.760;9.152;2023-06-04T05:46:46;3.47;;;1.80;;
1949;SDS011;975;48.760;9.152;2023-06-04T05:49:34;1.92;;;1.55;;
1949;SDS011;975;48.760;9.152;2023-06-04T05:52:23;3.10;;;1.38;;
1949;SDS011;975;48.760;9.152;2023-06-04T05:55:11;2.40;;;1.50;;
1949;SDS011;975;48.760;9.152;2023-06-04T05:58:00;4.85;;;1.30;;
1949;SDS011;975;48.760;9.152;2023-06-04T06:00:48;2.42;;;1.60;;
1949;SDS011;975;48.760;9.152;2023-06-04T06:03:36;2.85;;;1.42;;
1949;SDS011;975;48.760;9.152;2023-06-04T06:06:24;3.85;;;1.90;;
1949;SDS011;975;48.760;9.152;2023-06-04T06:09:13;3.42;;;1.63;;
1949;SDS011;975;48.760;9.152;2023-06-04T06:12:01;1.73;;;1.25;;
1949;SDS011;975;48.760;9.152;2023-06-04T06:14:48;4.50;;;1.75;;
1949;SDS011;975;48.760;9.152;2023-06-04T06:17:37;1.98;;;1.35;;
1949;SDS011;975;48.760;9.152;2023-06-04T06:20:25;3.80;;;1.67;;
1949;SDS011;975;48.760;9.152;2023-06-04T06:23:17;3.88;;;1.70;;
1949;SDS011;975;48.760;9.152;2023-06-04T06:26:09;2.25;;;1.60;;
1949;SDS011;975;48.760;9.152;2023-06-04T06:31:45;4.65;;;2.08;;
1949;SDS011;975;48.760;9.152;2023-06-04T06:34:35;2.17;;;1.58;;
1949;SDS011;975;48.760;9.152;2023-06-04T06:37:24;7.88;;;2.28;;
1949;SDS011;975;48.760;9.152;2023-06-04T06:40:11;3.97;;;2.58;;
1949;SDS011;975;48.760;9.152;2023-06-04T06:43:04;5.68;;;2.05;;
1949;SDS011;975;48.760;9.152;2023-06-04T06:45:52;5.00;;;1.70;;
1949;SDS011;975;48.760;9.152;2023-06-04T06:48:40;2.75;;;1.52;;
1949;SDS011;975;48.760;9.152;2023-06-04T06:51:30;3.95;;;1.50;;
1949;SDS011;975;48.760;9.152;2023-06-04T06:54:21;3.88;;;1.52;;
1949;SDS011;975;48.760;9.152;2023-06-04T06:57:09;30.80;;;14.85;;
1949;SDS011;975;48.760;9.152;2023-06-04T06:59:58;6.40;;;2.83;;
1949;SDS011;975;48.760;9.152;2023-06-04T07:02:46;4.30;;;1.42;;
1949;SDS011;975;48.760;9.152;2023-06-04T07:05:34;4.80;;;1.65;;
1949;SDS011;975;48.760;9.152;2023-06-04T07:08:22;3.45;;;1.42;;
1949;SDS011;975;48.760;9.152;2023-06-04T07:11:10;2.13;;;1.42;;
1949;SDS011;975;48.760;9.152;2023-06-04T07:14:02;3.03;;;1.65;;
1949;SDS011;975;48.760;9.152;2023-06-04T07:16:51;2.20;;;1.52;;
1949;SDS011;975;48.760;9.152;2023-06-04T07:19:39;4.40;;;1.48;;
1949;SDS011;975;48.760;9.152;2023-06-04T07:22:27;4.00;;;1.60;;
1949;SDS011;975;48.760;9.152;2023-06-04T07:25:19;3.85;;;1.65;;
1949;SDS011;975;48.760;9.152;2023-06-04T07:28:09;3.00;;;1.52;;
1949;SDS011;975;48.760;9.152;2023-06-04T07:30:57;2.67;;;1.55;;
1949;SDS011;975;48.760;9.152;2023-06-04T07:33:46;3.78;;;1.70;;
1949;SDS011;975;48.760;9.152;2023-06-04T07:36:34;3.13;;;1.50;;
1949;SDS011;975;48.760;9.152;2023-06-04T07:39:24;2.67;;;1.80;;
1949;SDS011;975;48.760;9.152;2023-06-04T07:42:15;2.10;;;1.20;;
1949;SDS011;975;48.760;9.152;2023-06-04T07:45:03;3.70;;;1.70;;
1949;SDS011;975;48.760;9.152;2023-06-04T07:47:51;2.17;;;1.33;;
1949;SDS011;975;48.760;9.152;2023-06-04T07:50:40;2.65;;;1.35;;
1949;SDS011;975;48.760;9.152;2023-06-04T07:53:28;4.38;;;1.73;;
1949;SDS011;975;48.760;9.152;2023-06-04T07:56:16;4.10;;;1.50;;
1949;SDS011;975;48.760;9.152;2023-06-04T07:59:11;2.67;;;1.30;;
1949;SDS011;975;48.760;9.152;2023-06-04T08:01:59;4.63;;;1.70;;
1949;SDS011;975;48.760;9.152;2023-06-04T08:04:47;3.75;;;1.60;;
1949;SDS011;975;48.760;9.152;2023-06-04T08:07:36;2.75;;;1.30;;
1949;SDS011;975;48.760;9.152;2023-06-04T08:10:26;3.45;;;1.77;;
1949;SDS011;975;48.760;9.152;2023-06-04T08:13:17;3.28;;;1.52;;
1949;SDS011;975;48.760;9.152;2023-06-04T08:16:06;3.63;;;1.58;;
1949;SDS011;975;48.760;9.152;2023-06-04T08:18:55;2.92;;;1.58;;
1949;SDS011;975;48.760;9.152;2023-06-04T08:21:43;3.55;;;1.50;;
1949;SDS011;975;48.760;9.152;2023-06-04T08:24:33;4.10;;;1.40;;
1949;SDS011;975;48.760;9.152;2023-06-04T08:27:20;4.35;;;1.80;;
1949;SDS011;975;48.760;9.152;2023-06-04T08:30:11;2.65;;;1.60;;
1949;SDS011;975;48.760;9.152;2023-06-04T08:33:05;2.85;;;1.65;;
1949;SDS011;975;48.760;9.152;2023-06-04T08:35:53;3.40;;;1.83;;
1949;SDS011;975;48.760;9.152;2023-06-04T08:38:41;3.50;;;1.95;;
1949;SDS011;975;48.760;9.152;2023-06-04T08:41:32;3.45;;;1.63;;
1949;SDS011;975;48.760;9.152;2023-06-04T08:44:24;2.75;;;1.80;;
1949;SDS011;975;48.760;9.152;2023-06-04T08:47:12;3.22;;;1.80;;
1949;SDS011;975;48.760;9.152;2023-06-04T08:50:11;3.90;;;1.55;;
1949;SDS011;975;48.760;9.152;2023-06-04T08:52:59;3.20;;;1.80;;
1949;SDS011;975;48.760;9.152;2023-06-04T08:55:47;3.03;;;1.77;;
1949;SDS011;975;48.760;9.152;2023-06-04T08:58:39;4.15;;;2.10;;
1949;SDS011;975;48.760;9.152;2023-06-04T09:01:27;2.70;;;1.67;;
1949;SDS011;975;48.760;9.152;2023-06-04T09:04:15;2.58;;;2.03;;
1949;SDS011;975;48.760;9.152;2023-06-04T09:07:04;2.63;;;1.67;;
1949;SDS011;975;48.760;9.152;2023-06-04T09:09:53;3.65;;;1.88;;
1949;SDS011;975;48.760;9.152;2023-06-04T09:12:41;2.53;;;1.80;;
1949;SDS011;975;48.760;9.152;2023-06-04T09:15:31;4.20;;;1.88;;
1949;SDS011;975;48.760;9.152;2023-06-04T09:18:19;3.63;;;2.00;;
1949;SDS011;975;48.760;9.152;2023-06-04T09:21:10;4.22;;;1.88;;
1949;SDS011;975;48.760;9.152;2023-06-04T09:23:58;3.10;;;1.73;;
1949;SDS011;975;48.760;9.152;2023-06-04T09:26:46;3.58;;;2.15;;
1949;SDS011;975;48.760;9.152;2023-06-04T09:29:37;2.95;;;1.52;;
1949;SDS011;975;48.760;9.152;2023-06-04T09:32:26;4.10;;;1.90;;
1949;SDS011;975;48.760;9.152;2023-06-04T09:35:15;3.00;;;1.85;;
1949;SDS011;975;48.760;9.152;2023-06-04T09:38:06;2.72;;;1.63;;
1949;SDS011;975;48.760;9.152;2023-06-04T09:40:54;3.60;;;2.00;;
1949;SDS011;975;48.760;9.152;2023-06-04T09:43:42;1.80;;;1.52;;
1949;SDS011;975;48.760;9.152;2023-06-04T09:46:30;4.00;;;1.65;;
1949;SDS011;975;48.760;9.152;2023-06-04T09:49:19;5.88;;;2.05;;
1949;SDS011;975;48.760;9.152;2023-06-04T09:52:07;4.20;;;1.90;;
1949;SDS011;975;48.760;9.152;2023-06-04T09:54:58;3.63;;;2.38;;
1949;SDS011;975;48.760;9.152;2023-06-04T09:57:46;4.53;;;1.88;;
1949;SDS011;975;48.760;9.152;2023-06-04T10:00:39;2.53;;;2.03;;
1949;SDS011;975;48.760;9.152;2023-06-04T10:03:29;2.85;;;1.92;;
1949;SDS011;975;48.760;9.152;2023-06-04T10:06:19;3.13;;;2.15;;
1949;SDS011;975;48.760;9.152;2023-06-04T10:09:08;5.50;;;2.00;;
1949;SDS011;975;48.760;9.152;2023-06-04T10:12:03;4.78;;;1.80;;
1949;SDS011;975;48.760;9.152;2023-06-04T10:14:52;4.22;;;2.28;;
1949;SDS011;975;48.760;9.152;2023-06-04T10:17:40;3.35;;;2.10;;
1949;SDS011;975;48.760;9.152;2023-06-04T10:20:31;2.97;;;1.80;;
1949;SDS011;975;48.760;9.152;2023-06-04T10:23:23;3.13;;;1.70;;
1949;SDS011;975;48.760;9.152;2023-06-04T10:26:13;2.15;;;1.85;;
1949;SDS011;975;48.760;9.152;2023-06-04T10:29:01;4.07;;;2.17;;
1949;SDS011;975;48.760;9.152;2023-06-04T10:31:53;3.55;;;2.05;;
1949;SDS011;975;48.760;9.152;2023-06-04T10:34:41;3.80;;;2.22;;
1949;SDS011;975;48.760;9.152;2023-06-04T10:37:32;3.22;;;1.90;;
1949;SDS011;975;48.760;9.152;2023-06-04T10:40:22;4.50;;;2.90;;
1949;SDS011;975;48.760;9.152;2023-06-04T10:43:20;5.78;;;2.70;;
1949;SDS011;975;48.760;9.152;2023-06-04T10:46:12;2.95;;;2.45;;
1949;SDS011;975;48.760;9.152;2023-06-04T10:49:00;4.20;;;2.40;;
1949;SDS011;975;48.760;9.152;2023-06-04T10:51:48;6.13;;;2.42;;
1949;SDS011;975;48.760;9.152;2023-06-04T10:54:48;2.72;;;2.20;;
1949;SDS011;975;48.760;9.152;2023-06-04T10:57:50;4.32;;;2.60;;
1949;SDS011;975;48.760;9.152;2023-06-04T11:00:38;11.00;;;2.50;;
1949;SDS011;975;48.760;9.152;2023-06-04T11:03:35;2.45;;;2.00;;
1949;SDS011;975;48.760;9.152;2023-06-04T11:06:23;2.97;;;1.88;;
1949;SDS011;975;48.760;9.152;2023-06-04T11:09:13;4.10;;;2.30;;
1949;SDS011;975;48.760;9.152;2023-06-04T11:12:04;4.82;;;2.30;;
1949;SDS011;975;48.760;9.152;2023-06-04T11:14:57;4.82;;;2.42;;
1949;SDS011;975;48.760;9.152;2023-06-04T11:17:50;3.17;;;1.90;;
1949;SDS011;975;48.760;9.152;2023-06-04T11:20:38;4.53;;;1.98;;
1949;SDS011;975;48.760;9.152;2023-06-04T11:23:28;4.47;;;1.90;;
1949;SDS011;975;48.760;9.152;2023-06-04T11:26:16;3.20;;;2.30;;
1949;SDS011;975;48.760;9.152;2023-06-04T11:29:05;4.03;;;2.05;;
1949;SDS011;975;48.760;9.152;2023-06-04T11:31:55;4.47;;;2.20;;
1949;SDS011;975;48.760;9.152;2023-06-04T11:37:30;3.55;;;2.20;;
1949;SDS011;975;48.760;9.152;2023-06-04T11:40:19;2.38;;;2.15;;
1949;SDS011;975;48.760;9.152;2023-06-04T11:43:10;4.43;;;2.63;;
1949;SDS011;975;48.760;9.152;2023-06-04T11:45:58;4.43;;;2.45;;
1949;SDS011;975;48.760;9.152;2023-06-04T11:48:48;4.05;;;2.30;;
1949;SDS011;975;48.760;9.152;2023-06-04T11:51:37;5.47;;;2.75;;
1949;SDS011;975;48.760;9.152;2023-06-04T11:54:25;4.82;;;2.45;;
1949;SDS011;975;48.760;9.152;2023-06-04T11:57:13;3.58;;;2.53;;
1949;SDS011;975;48.760;9.152;2023-06-04T12:00:01;4.28;;;2.53;;
1949;SDS011;975;48.760;9.152;2023-06-04T12:02:51;5.63;;;3.05;;
1949;SDS011;975;48.760;9.152;2023-06-04T12:05:43;3.00;;;2.15;;
1949;SDS011;975;48.760;9.152;2023-06-04T12:08:31;2.50;;;1.90;;
1949;SDS011;975;48.760;9.152;2023-06-04T12:11:26;6.32;;;2.58;;
1949;SDS011;975;48.760;9.152;2023-06-04T12:14:15;2.70;;;2.10;;
1949;SDS011;975;48.760;9.152;2023-06-04T12:19:51;3.53;;;2.40;;
1949;SDS011;975;48.760;9.152;2023-06-04T12:22:45;3.58;;;2.28;;
1949;SDS011;975;48.760;9.152;2023-06-04T12:25:34;3.83;;;2.33;;
1949;SDS011;975;48.760;9.152;2023-06-04T12:31:15;3.63;;;2.55;;
1949;SDS011;975;48.760;9.152;2023-06-04T12:34:03;5.28;;;2.47;;
1949;SDS011;975;48.760;9.152;2023-06-04T12:36:51;5.72;;;2.40;;
1949;SDS011;975;48.760;9.152;2023-06-04T12:39:40;3.67;;;2.75;;
1949;SDS011;975;48.760;9.152;2023-06-04T12:42:31;5.30;;;3.00;;
1949;SDS011;975;48.760;9.152;2023-06-04T12:45:19;6.65;;;2.90;;
1949;SDS011;975;48.760;9.152;2023-06-04T12:48:07;4.82;;;2.65;;
1949;SDS011;975;48.760;9.152;2023-06-04T12:50:55;3.47;;;2.45;;
1949;SDS011;975;48.760;9.152;2023-06-04T12:53:43;3.50;;;2.45;;
1949;SDS011;975;48.760;9.152;2023-06-04T12:56:32;3.28;;;2.40;;
1949;SDS011;975;48.760;9.152;2023-06-04T12:59:20;4.95;;;2.10;;
1949;SDS011;975;48.760;9.152;2023-06-04T13:02:08;5.03;;;2.42;;
1949;SDS011;975;48.760;9.152;2023-06-04T13:04:56;4.43;;;2.40;;
1949;SDS011;975;48.760;9.152;2023-06-04T13:07:47;5.22;;;2.65;;
1949;SDS011;975;48.760;9.152;2023-06-04T13:10:35;3.78;;;1.85;;
1949;SDS011;975;48.760;9.152;2023-06-04T13:13:26;5.43;;;2.60;;
1949;SDS011;975;48.760;9.152;2023-06-04T13:16:15;3.85;;;2.80;;
1949;SDS011;975;48.760;9.152;2023-06-04T13:19:02;4.00;;;2.40;;
1949;SDS011;975;48.760;9.152;2023-06-04T13:21:53;3.83;;;2.38;;
1949;SDS011;975;48.760;9.152;2023-06-04T13:24:42;3.83;;;2.38;;
1949;SDS011;975;48.760;9.152;2023-06-04T13:27:33;4.70;;;2.58;;
1949;SDS011;975;48.760;9.152;2023-06-04T13:30:23;2.60;;;2.25;;
1949;SDS011;975;48.760;9.152;2023-06-04T13:33:11;4.55;;;2.50;;
1949;SDS011;975;48.760;9.152;2023-06-04T13:35:59;6.57;;;2.40;;
1949;SDS011;975;48.760;9.152;2023-06-04T13:38:46;3.83;;;2.15;;
1949;SDS011;975;48.760;9.152;2023-06-04T13:41:34;5.13;;;2.40;;
1949;SDS011;975;48.760;9.152;2023-06-04T13:44:25;4.80;;;2.55;;
1949;SDS011;975;48.760;9.152;2023-06-04T13:47:18;2.67;;;2.00;;
1949;SDS011;975;48.760;9.152;2023-06-04T13:50:07;4.15;;;2.50;;
1949;SDS011;975;48.760;9.152;2023-06-04T13:52:55;5.55;;;2.40;;
1949;SDS011;975;48.760;9.152;2023-06-04T13:55:43;4.20;;;2.47;;
1949;SDS011;975;48.760;9.152;2023-06-04T13:58:31;5.40;;;3.25;;
1949;SDS011;975;48.760;9.152;2023-06-04T14:01:19;4.82;;;2.20;;
1949;SDS011;975;48.760;9.152;2023-06-04T14:04:11;3.70;;;1.95;;
1949;SDS011;975;48.760;9.152;2023-06-04T14:06:59;3.17;;;2.08;;
1949;SDS011;975;48.760;9.152;2023-06-04T14:09:46;3.70;;;2.17;;
1949;SDS011;975;48.760;9.152;2023-06-04T14:12:40;2.97;;;2.00;;
1949;SDS011;975;48.760;9.152;2023-06-04T14:15:28;3.35;;;2.15;;
1949;SDS011;975;48.760;9.152;2023-06-04T14:18:16;3.92;;;2.13;;
1949;SDS011;975;48.760;9.152;2023-06-04T14:21:14;4.13;;;2.38;;
1949;SDS011;975;48.760;9.152;2023-06-04T14:24:02;2.40;;;2.00;;
1949;SDS011;975;48.760;9.152;2023-06-04T14:26:50;4.10;;;2.38;;
1949;SDS011;975;48.760;9.152;2023-06-04T14:29:38;4.30;;;2.30;;
1949;SDS011;975;48.760;9.152;2023-06-04T14:32:26;2.90;;;2.20;;
1949;SDS011;975;48.760;9.152;2023-06-04T14:35:17;2.30;;;1.88;;
1949;SDS011;975;48.760;9.152;2023-06-04T14:38:07;3.33;;;2.13;;
1949;SDS011;975;48.760;9.152;2023-06-04T14:43:42;3.55;;;2.28;;
1949;SDS011;975;48.760;9.152;2023-06-04T14:46:30;4.70;;;2.28;;
1949;SDS011;975;48.760;9.152;2023-06-04T14:49:20;3.85;;;2.50;;
1949;SDS011;975;48.760;9.152;2023-06-04T14:52:11;2.90;;;2.30;;
1949;SDS011;975;48.760;9.152;2023-06-04T14:55:00;4.65;;;2.45;;
1949;SDS011;975;48.760;9.152;2023-06-04T14:57:48;4.28;;;2.17;;
1949;SDS011;975;48.760;9.152;2023-06-04T15:00:36;3.42;;;2.20;;
1949;SDS011;975;48.760;9.152;2023-06-04T15:03:24;5.88;;;2.20;;
1949;SDS011;975;48.760;9.152;2023-06-04T15:06:12;3.28;;;2.30;;
1949;SDS011;975;48.760;9.152;2023-06-04T15:09:01;3.83;;;2.28;;
1949;SDS011;975;48.760;9.152;2023-06-04T15:11:50;3.10;;;1.90;;
1949;SDS011;975;48.760;9.152;2023-06-04T15:14:38;3.88;;;2.08;;
1949;SDS011;975;48.760;9.152;2023-06-04T15:17:26;5.18;;;2.33;;
1949;SDS011;975;48.760;9.152;2023-06-04T15:20:14;5.05;;;2.38;;
1949;SDS011;975;48.760;9.152;2023-06-04T15:23:02;4.35;;;2.85;;
1949;SDS011;975;48.760;9.152;2023-06-04T15:25:49;4.40;;;2.17;;
1949;SDS011;975;48.760;9.152;2023-06-04T15:28:39;4.65;;;2.42;;
1949;SDS011;975;48.760;9.152;2023-06-04T15:31:27;4.57;;;2.15;;
1949;SDS011;975;48.760;9.152;2023-06-04T15:34:20;3.47;;;2.08;;
1949;SDS011;975;48.760;9.152;2023-06-04T15:37:08;3.17;;;1.98;;
1949;SDS011;975;48.760;9.152;2023-06-04T15:39:56;5.45;;;2.20;;
1949;SDS011;975;48.760;9.152;2023-06-04T15:45:34;3.28;;;2.40;;
1949;SDS011;975;48.760;9.152;2023-06-04T15:48:22;4.35;;;2.70;;
1949;SDS011;975;48.760;9.152;2023-06-04T15:51:14;3.03;;;2.20;;
1949;SDS011;975;48.760;9.152;2023-06-04T15:54:02;4.55;;;2.65;;
1949;SDS011;975;48.760;9.152;2023-06-04T15:56:51;2.55;;;2.00;;
1949;SDS011;975;48.760;9.152;2023-06-04T15:59:39;3.95;;;2.53;;
1949;SDS011;975;48.760;9.152;2023-06-04T16:02:28;3.83;;;2.42;;
1949;SDS011;975;48.760;9.152;2023-06-04T16:05:16;4.28;;;2.60;;
1949;SDS011;975;48.760;9.152;2023-06-04T16:08:03;3.88;;;2.40;;
1949;SDS011;975;48.760;9.152;2023-06-04T16:10:51;4.13;;;2.20;;
1949;SDS011;975;48.760;9.152;2023-06-04T16:13:41;3.22;;;2.17;;
1949;SDS011;975;48.760;9.152;2023-06-04T16:16:29;3.85;;;2.20;;
1949;SDS011;975;48.760;9.152;2023-06-04T16:19:18;3.13;;;1.80;;
1949;SDS011;975;48.760;9.152;2023-06-04T16:22:06;3.83;;;2.03;;
1949;SDS011;975;48.760;9.152;2023-06-04T16:24:54;4.07;;;2.33;;
1949;SDS011;975;48.760;9.152;2023-06-04T16:27:42;4.32;;;2.35;;
1949;SDS011;975;48.760;9.152;2023-06-04T16:30:29;3.30;;;2.38;;
1949;SDS011;975;48.760;9.152;2023-06-04T16:33:17;3.08;;;2.03;;
1949;SDS011;975;48.760;9.152;2023-06-04T16:36:07;6.03;;;2.15;;
1949;SDS011;975;48.760;9.152;2023-06-04T16:38:55;3.05;;;2.08;;
1949;SDS011;975;48.760;9.152;2023-06-04T16:41:42;3.25;;;2.28;;
1949;SDS011;975;48.760;9.152;2023-06-04T16:44:30;2.60;;;1.95;;
1949;SDS011;975;48.760;9.152;2023-06-04T16:47:23;2.50;;;2.03;;
1949;SDS011;975;48.760;9.152;2023-06-04T16:50:11;3.78;;;2.25;;
1949;SDS011;975;48.760;9.152;2023-06-04T16:53:03;1.98;;;1.70;;
1949;SDS011;975;48.760;9.152;2023-06-04T16:55:51;2.33;;;1.92;;
1949;SDS011;975;48.760;9.152;2023-06-04T16:58:39;2.22;;;1.90;;
1949;SDS011;975;48.760;9.152;2023-06-04T17:01:30;3.28;;;1.88;;
1949;SDS011;975;48.760;9.152;2023-06-04T17:04:19;4.97;;;2.05;;
1949;SDS011;975;48.760;9.152;2023-06-04T17:07:07;5.72;;;2.28;;
1949;SDS011;975;48.760;9.152;2023-06-04T17:09:56;4.88;;;1.85;;
1949;SDS011;975;48.760;9.152;2023-06-04T17:12:44;6.13;;;2.40;;
1949;SDS011;975;48.760;9.152;2023-06-04T17:15:31;2.08;;;1.40;;
1949;SDS011;975;48.760;9.152;2023-06-04T17:18:22;2.60;;;1.80;;
1949;SDS011;975;48.760;9.152;2023-06-04T17:21:16;2.88;;;1.60;;
1949;SDS011;975;48.760;9.152;2023-06-04T17:24:06;4.05;;;1.65;;
1949;SDS011;975;48.760;9.152;2023-06-04T17:26:56;3.00;;;2.00;;
1949;SDS011;975;48.760;9.152;2023-06-04T17:32:31;3.13;;;2.03;;
1949;SDS011;975;48.760;9.152;2023-06-04T17:35:19;3.60;;;1.85;;
1949;SDS011;975;48.760;9.152;2023-06-04T17:38:07;5.43;;;2.28;;
1949;SDS011;975;48.760;9.152;2023-06-04T17:41:00;3.55;;;2.13;;
1949;SDS011;975;48.760;9.152;2023-06-04T17:43:50;2.72;;;1.77;;
1949;SDS011;975;48.760;9.152;2023-06-04T17:46:38;2.85;;;1.55;;
1949;SDS011;975;48.760;9.152;2023-06-04T17:49:26;2.22;;;1.65;;
1949;SDS011;975;48.760;9.152;2023-06-04T17:52:13;2.03;;;1.52;;
1949;SDS011;975;48.760;9.152;2023-06-04T17:55:01;3.22;;;1.52;;
1949;SDS011;975;48.760;9.152;2023-06-04T17:57:49;2.80;;;1.70;;
1949;SDS011;975;48.760;9.152;2023-06-04T18:00:38;2.95;;;1.85;;
1949;SDS011;975;48.760;9.152;2023-06-04T18:03:27;4.93;;;2.13;;
1949;SDS011;975;48.760;9.152;2023-06-04T18:06:17;3.80;;;1.60;;
1949;SDS011;975;48.760;9.152;2023-06-04T18:09:05;3.15;;;1.40;;
1949;SDS011;975;48.760;9.152;2023-06-04T18:11:56;3.30;;;1.52;;
1949;SDS011;975;48.760;9.152;2023-06-04T18:14:43;2.33;;;1.40;;
1949;SDS011;975;48.760;9.152;2023-06-04T18:17:33;3.30;;;1.52;;
1949;SDS011;975;48.760;9.152;2023-06-04T18:20:20;2.33;;;1.50;;